Time;durP1;ratioP1;P1;durP2;ratioP2;P2;SDS_P1;SDS_P2;PMS_P1;PMS_P2;Temp;Humidity;BMP_temperature;BMP_pressure;BME280_temperature;BME280_humidity;BME280_pressure;Samples;Min_cycle;Max_cycle;Signal;HPM_P1;HPM_P2
2023/05/29 00:01:13;;;;;;;4.10;3.00;;;23.00;52.50;;;;;;4862870;28;91530;-86
2023/05/29 00:03:39;;;;;;;4.88;3.50;;;23.00;52.60;;;;;;4862444;28;95023;-86
2023/05/29 00:06:05;;;;;;;5.03;3.47;;;23.00;53.10;;;;;;4861005;28;94966;-86
2023/05/29 00:08:31;;;;;;;5.00;3.63;;;23.00;52.80;;;;;;4861180;28;93329;-86
2023/05/29 00:10:58;;;;;;;4.45;2.97;;;23.00;52.90;;;;;;4862367;28;91929;-86
2023/05/29 00:13:23;;;;;;;4.45;3.25;;;23.00;52.80;;;;;;4864240;28;92747;-86
2023/05/29 00:15:49;;;;;;;4.05;3.58;;;23.00;52.80;;;;;;4867111;28;92792;-86
2023/05/29 00:18:14;;;;;;;4.40;3.42;;;23.00;52.80;;;;;;4866591;28;92856;-87
2023/05/29 00:20:40;;;;;;;4.80;3.30;;;23.00;52.90;;;;;;4863570;28;92773;-86
2023/05/29 00:23:06;;;;;;;5.05;3.60;;;23.00;53.00;;;;;;4862683;28;95484;-87
2023/05/29 00:25:32;;;;;;;4.75;3.35;;;23.00;53.20;;;;;;4864342;28;95073;-86
2023/05/29 00:27:58;;;;;;;3.50;3.20;;;23.00;53.10;;;;;;4866908;28;93448;-86
2023/05/29 00:30:24;;;;;;;5.13;3.35;;;23.00;53.10;;;;;;4864279;28;92695;-86
2023/05/29 00:32:51;;;;;;;4.43;3.47;;;23.00;53.10;;;;;;4864008;28;96369;-86
2023/05/29 00:35:17;;;;;;;4.45;3.20;;;23.00;53.30;;;;;;4865358;28;94291;-86
2023/05/29 00:37:43;;;;;;;4.22;3.20;;;23.00;53.30;;;;;;4863967;28;93006;-86
2023/05/29 00:40:10;;;;;;;4.95;3.40;;;22.90;53.20;;;;;;4864778;28;92698;-85
2023/05/29 00:42:35;;;;;;;3.97;3.22;;;22.90;53.30;;;;;;4864999;28;93569;-86
2023/05/29 00:45:03;;;;;;;4.05;3.50;;;22.90;53.30;;;;;;4863981;28;94833;-86
2023/05/29 00:47:29;;;;;;;3.70;2.88;;;22.90;53.30;;;;;;4864040;28;93048;-86
2023/05/29 00:49:57;;;;;;;3.88;3.28;;;22.90;53.40;;;;;;4865288;28;92577;-86
2023/05/29 00:52:24;;;;;;;4.68;3.38;;;22.90;53.40;;;;;;4866147;28;93180;-86
2023/05/29 00:54:50;;;;;;;6.60;3.13;;;22.90;53.50;;;;;;4866446;28;93399;-86
2023/05/29 00:57:17;;;;;;;4.90;3.17;;;22.90;53.50;;;;;;4866564;28;93240;-86
2023/05/29 00:59:45;;;;;;;3.42;3.00;;;22.90;53.50;;;;;;4864826;28;92260;-86
2023/05/29 01:02:11;;;;;;;4.37;3.03;;;22.90;53.50;;;;;;4862742;28;95171;-86
2023/05/29 01:04:37;;;;;;;4.10;3.10;;;22.90;53.60;;;;;;4864942;28;92781;-87
2023/05/29 01:07:03;;;;;;;5.32;3.38;;;22.80;53.50;;;;;;4867113;28;92257;-86
2023/05/29 01:09:30;;;;;;;4.47;3.38;;;22.90;53.70;;;;;;4864296;28;92441;-86
2023/05/29 01:12:04;;;;;;;5.47;3.42;;;22.80;53.70;;;;;;4862246;28;93920;-86
2023/05/29 01:14:35;;;;;;;4.25;3.17;;;22.80;53.60;;;;;;4865213;28;94143;-86
2023/05/29 01:17:29;;;;;;;5.20;3.72;;;22.90;53.80;;;;;;4865242;28;92970;-86
2023/05/29 01:20:19;;;;;;;4.30;3.38;;;22.80;54.40;;;;;;4859644;28;92878;-86
2023/05/29 01:23:03;;;;;;;3.38;2.97;;;22.90;53.80;;;;;;4864333;28;94293;-86
2023/05/29 01:26:10;;;;;;;3.88;3.17;;;22.90;53.70;;;;;;4862932;28;94901;-87
2023/05/29 01:28:48;;;;;;;4.32;3.13;;;22.90;53.80;;;;;;4860672;28;92638;-86
2023/05/29 01:31:20;;;;;;;3.97;3.45;;;22.90;53.90;;;;;;4864428;28;92502;-85
2023/05/29 01:33:53;;;;;;;3.38;3.03;;;22.90;54.00;;;;;;4866197;28;93660;-86
2023/05/29 01:36:19;;;;;;;4.00;3.15;;;22.80;53.70;;;;;;4864774;28;92809;-86
2023/05/29 01:38:45;;;;;;;4.38;3.38;;;22.80;53.90;;;;;;4863298;28;92623;-86
2023/05/29 01:41:11;;;;;;;4.05;3.20;;;22.80;54.10;;;;;;4865922;28;92279;-86
2023/05/29 01:43:37;;;;;;;3.13;2.53;;;22.80;54.00;;;;;;4864424;28;93189;-86
2023/05/29 01:46:03;;;;;;;5.10;3.38;;;22.80;54.10;;;;;;4862721;28;93957;-87
2023/05/29 01:48:30;;;;;;;4.13;3.22;;;22.80;54.20;;;;;;4863708;28;93909;-86
2023/05/29 01:50:57;;;;;;;3.35;2.85;;;22.80;54.20;;;;;;4864630;28;93011;-86
2023/05/29 01:53:23;;;;;;;4.80;3.20;;;22.80;54.10;;;;;;4864707;28;93078;-86
2023/05/29 01:55:50;;;;;;;4.57;3.15;;;22.80;54.10;;;;;;4862153;28;95439;-86
2023/05/29 01:58:17;;;;;;;3.17;2.88;;;22.80;54.10;;;;;;4863854;28;92667;-86
2023/05/29 02:00:43;;;;;;;3.45;3.03;;;22.80;54.30;;;;;;4863841;28;92823;-86
2023/05/29 02:03:08;;;;;;;3.95;3.53;;;22.80;54.20;;;;;;4863251;28;93133;-87
2023/05/29 02:05:34;;;;;;;4.20;3.22;;;22.80;54.40;;;;;;4863200;28;93663;-86
2023/05/29 02:07:59;;;;;;;4.03;3.15;;;22.80;54.40;;;;;;4864592;28;92306;-86
2023/05/29 02:10:25;;;;;;;4.03;3.20;;;22.80;54.40;;;;;;4864752;28;92036;-85
2023/05/29 02:12:51;;;;;;;4.13;3.00;;;22.80;54.30;;;;;;4862827;28;96515;-86
2023/05/29 02:15:17;;;;;;;4.25;3.33;;;22.70;54.20;;;;;;4862860;28;95461;-86
2023/05/29 02:17:44;;;;;;;4.50;3.10;;;22.70;54.30;;;;;;4863102;28;93186;-86
2023/05/29 02:20:10;;;;;;;3.55;3.17;;;22.80;54.50;;;;;;4865099;28;92585;-86
2023/05/29 02:22:36;;;;;;;3.35;3.00;;;22.80;54.40;;;;;;4861927;28;94439;-86
2023/05/29 02:25:02;;;;;;;3.15;2.85;;;22.80;54.40;;;;;;4863043;28;93897;-86
2023/05/29 02:27:27;;;;;;;3.63;3.20;;;22.70;54.40;;;;;;4862896;28;92264;-86
2023/05/29 02:29:53;;;;;;;4.05;2.90;;;22.70;54.50;;;;;;4864731;28;92209;-86
2023/05/29 02:32:19;;;;;;;4.50;3.00;;;22.80;54.60;;;;;;4863439;28;95273;-86
2023/05/29 02:34:45;;;;;;;3.50;3.20;;;22.70;54.70;;;;;;4863158;28;92899;-84
2023/05/29 02:37:10;;;;;;;4.25;2.97;;;22.70;54.70;;;;;;4863274;28;93738;-85
2023/05/29 02:39:36;;;;;;;4.03;3.05;;;22.70;54.70;;;;;;4865501;28;93271;-86
2023/05/29 02:42:02;;;;;;;3.20;2.70;;;22.70;54.80;;;;;;4863580;28;93588;-86
2023/05/29 02:44:27;;;;;;;3.78;3.30;;;22.70;54.80;;;;;;4864063;28;92840;-87
2023/05/29 02:46:53;;;;;;;3.50;3.03;;;22.60;54.80;;;;;;4861694;28;93045;-86
2023/05/29 02:49:19;;;;;;;4.35;3.50;;;22.70;54.90;;;;;;4862584;28;92416;-86
2023/05/29 02:51:44;;;;;;;4.10;3.08;;;22.60;54.80;;;;;;4862860;28;95063;-85
2023/05/29 02:54:12;;;;;;;3.65;2.80;;;22.60;54.90;;;;;;4864062;28;92635;-86
2023/05/29 02:56:38;;;;;;;3.45;2.80;;;22.70;55.00;;;;;;4863463;28;92515;-87
2023/05/29 02:59:04;;;;;;;3.22;2.92;;;22.60;54.90;;;;;;4862942;28;92818;-86
2023/05/29 03:01:29;;;;;;;3.67;2.92;;;22.60;54.90;;;;;;4862985;28;93549;-87
2023/05/29 03:03:56;;;;;;;3.10;2.58;;;22.60;54.90;;;;;;4864253;28;93978;-86
2023/05/29 03:06:21;;;;;;;3.50;2.70;;;22.60;54.90;;;;;;4864020;28;93079;-86
2023/05/29 03:08:48;;;;;;;3.63;2.80;;;22.60;54.80;;;;;;4862266;28;92702;-86
2023/05/29 03:11:15;;;;;;;2.90;2.67;;;22.60;55.00;;;;;;4863146;28;93447;-87
2023/05/29 03:13:40;;;;;;;3.10;2.58;;;22.60;55.10;;;;;;4862278;28;95853;-86
2023/05/29 03:16:07;;;;;;;3.58;2.70;;;22.60;55.00;;;;;;4865071;28;93947;-86
2023/05/29 03:18:33;;;;;;;3.22;2.92;;;22.60;55.10;;;;;;4864231;28;92317;-86
2023/05/29 03:20:59;;;;;;;3.13;2.83;;;22.60;55.00;;;;;;4860908;28;95216;-85
2023/05/29 03:23:25;;;;;;;3.90;2.95;;;22.60;55.10;;;;;;4861907;28;92875;-86
2023/05/29 03:25:51;;;;;;;2.53;2.30;;;22.60;55.10;;;;;;4862593;28;93500;-86
2023/05/29 03:28:16;;;;;;;3.75;2.78;;;22.60;55.10;;;;;;4863777;28;92507;-87
2023/05/29 03:30:42;;;;;;;2.85;2.55;;;22.60;55.20;;;;;;4861164;28;94451;-87
2023/05/29 03:33:07;;;;;;;3.05;2.65;;;22.60;55.20;;;;;;4863072;28;93135;-85
2023/05/29 03:35:33;;;;;;;2.85;2.65;;;22.60;55.30;;;;;;4863023;28;92415;-86
2023/05/29 03:37:59;;;;;;;3.58;3.05;;;22.60;55.40;;;;;;4860509;28;92675;-86
2023/05/29 03:40:25;;;;;;;3.13;2.80;;;22.60;55.40;;;;;;4861681;28;95592;-85
2023/05/29 03:42:50;;;;;;;2.97;2.58;;;22.60;55.30;;;;;;4862586;28;95822;-86
2023/05/29 03:45:16;;;;;;;3.53;3.10;;;22.60;55.40;;;;;;4863235;28;92604;-86
2023/05/29 03:47:42;;;;;;;4.03;3.45;;;22.50;55.20;;;;;;4862301;28;93030;-86
2023/05/29 03:50:08;;;;;;;3.90;2.83;;;22.60;55.30;;;;;;4862718;28;93965;-86
2023/05/29 03:52:33;;;;;;;3.60;2.85;;;22.60;55.30;;;;;;4861719;28;96682;-86
2023/05/29 03:54:59;;;;;;;2.80;2.60;;;22.50;55.40;;;;;;4863310;28;92435;-86
2023/05/29 03:57:26;;;;;;;3.40;2.83;;;22.50;55.60;;;;;;4862766;28;92428;-85
2023/05/29 03:59:51;;;;;;;2.97;2.50;;;22.50;55.30;;;;;;4862428;28;92852;-86
2023/05/29 04:02:17;;;;;;;3.20;2.80;;;22.50;55.40;;;;;;4862572;28;94134;-86
2023/05/29 04:04:43;;;;;;;3.00;2.70;;;22.50;55.50;;;;;;4860865;28;92652;-86
2023/05/29 04:07:09;;;;;;;3.03;2.72;;;22.50;55.50;;;;;;4862351;28;93203;-85
2023/05/29 04:09:34;;;;;;;3.45;2.80;;;22.50;55.40;;;;;;4864090;28;92924;-86
2023/05/29 04:12:02;;;;;;;2.63;2.30;;;22.50;55.70;;;;;;4860623;28;95503;-86
2023/05/29 04:14:28;;;;;;;4.03;3.10;;;22.50;55.60;;;;;;4862805;28;93867;-85
2023/05/29 04:16:53;;;;;;;3.20;2.65;;;22.50;55.80;;;;;;4861733;28;93123;-86
2023/05/29 04:19:20;;;;;;;2.75;2.40;;;22.50;55.90;;;;;;4860960;28;95120;-86
2023/05/29 04:21:47;;;;;;;4.43;2.90;;;22.50;55.70;;;;;;4860538;28;95261;-86
2023/05/29 04:24:13;;;;;;;3.20;2.70;;;22.50;55.70;;;;;;4860246;28;92076;-86
2023/05/29 04:26:41;;;;;;;3.30;2.35;;;22.50;55.50;;;;;;4861851;28;92475;-85
2023/05/29 04:29:07;;;;;;;3.70;2.88;;;22.50;55.40;;;;;;4861890;28;93847;-87
2023/05/29 04:31:32;;;;;;;2.90;2.63;;;22.60;55.60;;;;;;4860331;28;95552;-86
2023/05/29 04:34:00;;;;;;;3.22;2.72;;;22.60;55.70;;;;;;4862881;28;92945;-86
2023/05/29 04:36:26;;;;;;;3.00;2.70;;;22.50;55.50;;;;;;4862680;28;92786;-85
2023/05/29 04:38:53;;;;;;;2.92;2.60;;;22.60;55.60;;;;;;4862333;28;93908;-86
2023/05/29 04:41:19;;;;;;;2.88;2.20;;;22.60;55.50;;;;;;4860437;28;95935;-87
2023/05/29 04:43:45;;;;;;;4.03;3.20;;;22.60;55.50;;;;;;4862855;28;93395;-87
2023/05/29 04:46:15;;;;;;;4.25;2.78;;;22.60;55.50;;;;;;4862920;28;92975;-85
2023/05/29 04:48:40;;;;;;;5.75;3.15;;;22.70;54.70;;;;;;4862903;28;93114;-85
2023/05/29 04:51:06;;;;;;;5.60;2.60;;;22.70;54.10;;;;;;4861410;28;95243;-86
2023/05/29 04:53:32;;;;;;;5.68;2.70;;;22.70;53.70;;;;;;4863097;28;93012;-86
2023/05/29 04:55:58;;;;;;;4.05;2.58;;;22.70;53.90;;;;;;4861458;28;92243;-86
2023/05/29 04:58:26;;;;;;;3.92;2.70;;;22.70;54.00;;;;;;4860273;28;95234;-86
2023/05/29 05:00:51;;;;;;;4.63;2.35;;;22.70;54.10;;;;;;4866450;28;92887;-86
2023/05/29 05:03:17;;;;;;;3.50;2.42;;;22.70;54.10;;;;;;4864201;28;93737;-85
2023/05/29 05:05:43;;;;;;;2.60;2.33;;;22.70;54.40;;;;;;4865543;28;92618;-86
2023/05/29 05:08:11;;;;;;;2.90;2.47;;;22.80;54.30;;;;;;4869738;28;99029;-85
2023/05/29 05:10:37;;;;;;;2.58;2.38;;;22.80;54.50;;;;;;4869346;28;93399;-85
2023/05/29 05:13:03;;;;;;;3.70;2.55;;;22.80;54.40;;;;;;4865371;28;92435;-85
2023/05/29 05:15:28;;;;;;;4.30;2.45;;;22.80;54.30;;;;;;4863598;28;92670;-85
2023/05/29 05:17:54;;;;;;;5.22;2.33;;;22.80;54.50;;;;;;4863808;28;96608;-86
2023/05/29 05:20:19;;;;;;;3.00;2.35;;;22.80;54.40;;;;;;4865704;28;93387;-84
2023/05/29 05:22:45;;;;;;;2.92;2.30;;;22.90;54.40;;;;;;4865443;28;93163;-85
2023/05/29 05:25:11;;;;;;;3.78;2.35;;;22.90;54.30;;;;;;4865543;28;92347;-85
2023/05/29 05:27:37;;;;;;;3.13;2.45;;;22.90;54.30;;;;;;4863637;28;94928;-85
2023/05/29 05:30:03;;;;;;;8.20;2.92;;;23.00;54.30;;;;;;4865022;28;95361;-85
2023/05/29 05:32:29;;;;;;;3.75;2.10;;;23.00;54.30;;;;;;4865796;28;92849;-86
2023/05/29 05:34:55;;;;;;;3.75;2.15;;;23.00;54.40;;;;;;4865484;28;93054;-84
2023/05/29 05:37:23;;;;;;;2.65;2.28;;;23.00;54.00;;;;;;4865260;28;93228;-87
2023/05/29 05:39:49;;;;;;;3.60;2.90;;;23.10;54.10;;;;;;4865789;28;93831;-87
2023/05/29 05:42:15;;;;;;;4.13;2.25;;;23.10;54.40;;;;;;4863790;28;92685;-87
2023/05/29 05:44:41;;;;;;;3.65;2.78;;;23.10;54.40;;;;;;4864329;28;93995;-87
2023/05/29 05:47:06;;;;;;;5.32;2.70;;;23.10;54.40;;;;;;4863267;28;93013;-86
2023/05/29 05:49:32;;;;;;;4.75;2.70;;;23.00;54.50;;;;;;4863260;28;96220;-85
2023/05/29 05:51:57;;;;;;;15.63;4.80;;;23.00;54.20;;;;;;4865003;28;93310;-85
2023/05/29 05:54:23;;;;;;;12.43;4.10;;;23.00;53.60;;;;;;4864577;28;92629;-85
2023/05/29 05:56:49;;;;;;;18.55;6.22;;;23.00;54.10;;;;;;4862843;28;97289;-88
2023/05/29 05:59:14;;;;;;;12.27;4.47;;;23.00;54.10;;;;;;4865346;28;93343;-89
2023/05/29 06:01:41;;;;;;;13.30;5.03;;;23.10;53.40;;;;;;4865476;28;92878;-86
2023/05/29 06:04:07;;;;;;;12.40;5.18;;;23.10;53.40;;;;;;4865021;28;92865;-89
2023/05/29 06:06:32;;;;;;;16.42;5.97;;;23.00;53.30;;;;;;4866240;28;93025;-87
2023/05/29 06:08:58;;;;;;;15.68;5.63;;;23.00;53.30;;;;;;4866899;28;92589;-85
2023/05/29 06:11:25;;;;;;;15.95;5.38;;;23.00;53.00;;;;;;4864915;28;93221;-90
2023/05/29 06:13:52;;;;;;;13.75;5.45;;;23.00;51.10;;;;;;4882219;28;92656;-85
2023/05/29 06:16:18;;;;;;;16.70;5.35;;;23.00;50.50;;;;;;4865228;28;95677;-89
2023/05/29 06:18:44;;;;;;;14.55;4.93;;;23.00;50.20;;;;;;4865740;28;96656;-88
2023/05/29 06:21:11;;;;;;;14.70;4.68;;;23.00;51.20;;;;;;4867382;28;92035;-86
2023/05/29 06:23:37;;;;;;;13.10;5.20;;;22.90;50.70;;;;;;4866939;28;93019;-88
2023/05/29 06:26:03;;;;;;;13.68;4.35;;;23.00;51.20;;;;;;4865133;28;92841;-88
2023/05/29 06:28:29;;;;;;;14.45;3.92;;;23.00;51.00;;;;;;4864696;28;92793;-88
2023/05/29 06:30:55;;;;;;;15.52;4.15;;;23.10;50.50;;;;;;4863681;28;92762;-92
2023/05/29 06:33:21;;;;;;;11.25;4.50;;;23.20;50.10;;;;;;4868654;28;91786;-89
2023/05/29 06:35:47;;;;;;;13.07;3.88;;;23.10;50.30;;;;;;4867949;28;92564;-89
2023/05/29 06:38:16;;;;;;;13.70;5.57;;;23.20;50.00;;;;;;4867585;28;93030;-87
2023/05/29 06:40:41;;;;;;;14.10;3.63;;;23.20;49.70;;;;;;4867669;28;93149;-90
2023/05/29 06:43:09;;;;;;;11.00;4.28;;;23.20;49.80;;;;;;4868875;28;92629;-88
2023/05/29 06:45:34;;;;;;;10.60;4.28;;;23.20;50.00;;;;;;4867174;28;97531;-90
2023/05/29 06:48:00;;;;;;;12.45;4.20;;;23.20;50.20;;;;;;4865825;28;92982;-92
2023/05/29 06:50:26;;;;;;;10.50;4.50;;;23.20;50.00;;;;;;4866889;28;93703;-89
2023/05/29 06:52:51;;;;;;;10.02;3.70;;;23.20;50.20;;;;;;4867203;28;92788;-86
2023/05/29 06:55:17;;;;;;;9.75;3.78;;;23.20;50.30;;;;;;4867217;28;93419;-85
2023/05/29 06:57:43;;;;;;;11.70;3.70;;;23.20;50.30;;;;;;4868418;28;92786;-91
2023/05/29 07:00:10;;;;;;;15.05;4.38;;;23.20;50.30;;;;;;4867430;28;93214;-86
2023/05/29 07:02:37;;;;;;;12.55;4.32;;;23.20;50.00;;;;;;4868633;28;92554;-87
2023/05/29 07:05:03;;;;;;;14.23;4.20;;;23.20;49.90;;;;;;4866336;28;94721;-84
2023/05/29 07:07:29;;;;;;;12.25;4.38;;;23.30;50.10;;;;;;4866712;28;93911;-88
2023/05/29 07:09:54;;;;;;;8.93;3.28;;;23.30;49.80;;;;;;4865997;28;92719;-86
2023/05/29 07:12:22;;;;;;;9.65;3.78;;;23.30;49.80;;;;;;4861723;28;92285;-87
2023/05/29 07:14:48;;;;;;;14.32;3.83;;;23.40;49.70;;;;;;4858736;28;95805;-86
2023/05/29 07:17:14;;;;;;;12.35;4.28;;;23.40;49.60;;;;;;4862732;28;92962;-91
2023/05/29 07:19:40;;;;;;;12.43;3.92;;;23.40;49.60;;;;;;4862585;28;93311;-85
2023/05/29 07:22:06;;;;;;;12.52;3.30;;;23.40;49.60;;;;;;4863580;28;92422;-84
2023/05/29 07:24:31;;;;;;;14.57;3.83;;;23.30;47.70;;;;;;4861254;28;92813;-87
2023/05/29 07:26:57;;;;;;;12.85;4.15;;;23.20;46.50;;;;;;4861382;28;92700;-87
2023/05/29 07:29:23;;;;;;;13.20;3.83;;;23.10;45.50;;;;;;4864737;28;93273;-85
2023/05/29 07:31:50;;;;;;;12.63;3.30;;;23.20;45.20;;;;;;4859872;28;93313;-88
2023/05/29 07:34:16;;;;;;;14.02;3.83;;;23.20;45.00;;;;;;4861668;28;92876;-86
2023/05/29 07:37:03;;;;;;;13.18;3.58;;;23.20;46.10;;;;;;4862673;28;92904;-88
2023/05/29 07:39:32;;;;;;;13.82;4.05;;;23.20;46.50;;;;;;4859175;28;93718;-87
2023/05/29 07:42:01;;;;;;;14.57;3.40;;;23.10;45.80;;;;;;4860915;28;94198;-86
2023/05/29 07:44:26;;;;;;;20.27;6.00;;;23.00;45.50;;;;;;4861321;28;93683;-88
2023/05/29 07:46:52;;;;;;;32.53;7.57;;;23.00;45.20;;;;;;4861967;28;92593;-90
2023/05/29 07:49:19;;;;;;;27.25;7.07;;;23.00;45.00;;;;;;4862515;28;92984;-86
2023/05/29 07:51:45;;;;;;;25.98;5.70;;;22.90;43.80;;;;;;4856801;28;93899;-87
2023/05/29 07:54:11;;;;;;;27.45;5.43;;;22.80;43.60;;;;;;4860128;28;94218;-89
2023/05/29 07:56:37;;;;;;;21.48;4.80;;;22.80;43.80;;;;;;4861231;28;93963;-88
2023/05/29 07:59:03;;;;;;;17.00;4.43;;;22.90;44.30;;;;;;4875615;28;92701;-88
2023/05/29 08:01:29;;;;;;;20.70;4.72;;;22.90;45.10;;;;;;4859755;28;93368;-88
2023/05/29 08:03:55;;;;;;;22.38;5.85;;;22.80;45.20;;;;;;4861192;28;93282;-88
2023/05/29 08:06:21;;;;;;;17.60;5.05;;;22.80;45.20;;;;;;4861460;28;92119;-87
2023/05/29 08:08:47;;;;;;;16.75;4.65;;;22.90;45.70;;;;;;4861348;28;92280;-88
2023/05/29 08:11:13;;;;;;;14.45;4.10;;;23.00;45.80;;;;;;4861276;28;91401;-87
2023/05/29 08:13:38;;;;;;;16.27;3.85;;;23.00;45.50;;;;;;4863128;28;96162;-87
2023/05/29 08:16:04;;;;;;;17.05;4.32;;;22.90;45.10;;;;;;4861582;28;92697;-89
2023/05/29 08:18:31;;;;;;;10.27;3.33;;;22.90;45.10;;;;;;4861349;28;94045;-85
2023/05/29 08:20:57;;;;;;;10.82;3.83;;;22.90;45.60;;;;;;4858105;28;93114;-85
2023/05/29 08:23:22;;;;;;;7.35;3.22;;;22.90;45.50;;;;;;4859719;28;92886;-89
2023/05/29 08:25:48;;;;;;;12.63;3.65;;;23.00;45.70;;;;;;4859599;28;92096;-86
2023/05/29 08:28:17;;;;;;;11.20;3.63;;;23.00;45.80;;;;;;4860504;28;92897;-88
2023/05/29 08:30:42;;;;;;;12.50;3.63;;;23.10;45.70;;;;;;4862892;28;92454;-89
2023/05/29 08:33:08;;;;;;;8.77;2.83;;;23.10;45.80;;;;;;4862514;28;93335;-88
2023/05/29 08:35:34;;;;;;;12.63;3.90;;;23.00;45.50;;;;;;4864109;28;92876;-86
2023/05/29 08:38:00;;;;;;;7.47;2.90;;;23.10;45.80;;;;;;4867057;28;93022;-88
2023/05/29 08:40:25;;;;;;;10.18;3.20;;;23.10;45.90;;;;;;4865314;28;93115;-89
2023/05/29 08:43:07;;;;;;;8.48;2.90;;;23.10;45.80;;;;;;4864068;28;97262;-88
2023/05/29 08:45:35;;;;;;;12.77;3.60;;;23.10;45.80;;;;;;4877834;28;95934;-87
2023/05/29 08:48:02;;;;;;;9.27;3.40;;;23.10;45.80;;;;;;4863709;28;93227;-90
2023/05/29 08:50:27;;;;;;;9.38;3.40;;;23.20;45.70;;;;;;4763610;28;95186;-87
2023/05/29 08:52:53;;;;;;;9.50;3.17;;;23.10;46.10;;;;;;4861157;28;94413;-89
2023/05/29 08:55:19;;;;;;;14.80;4.13;;;23.20;46.00;;;;;;4862032;28;93115;-87
2023/05/29 08:57:46;;;;;;;14.05;3.53;;;23.20;46.00;;;;;;4862567;28;93198;-89
2023/05/29 09:00:13;;;;;;;13.73;4.30;;;23.20;46.00;;;;;;4877057;28;91829;-88
2023/05/29 09:02:39;;;;;;;10.85;3.45;;;23.20;46.20;;;;;;4862745;28;93497;-89
2023/05/29 09:05:06;;;;;;;13.50;4.22;;;23.20;46.10;;;;;;4863316;28;93089;-87
2023/05/29 09:07:32;;;;;;;12.60;3.58;;;23.20;46.50;;;;;;4863336;28;95628;-86
2023/05/29 09:09:59;;;;;;;10.93;3.08;;;23.30;45.90;;;;;;4864357;28;92943;-87
2023/05/29 09:12:25;;;;;;;9.25;3.88;;;23.20;45.90;;;;;;4864080;28;93519;-88
2023/05/29 09:14:50;;;;;;;10.63;3.17;;;23.30;46.20;;;;;;4862461;28;92616;-88
2023/05/29 09:17:16;;;;;;;12.63;3.90;;;23.30;46.10;;;;;;4863610;28;93403;-86
2023/05/29 09:19:42;;;;;;;10.75;3.47;;;23.30;46.10;;;;;;4864927;28;93319;-88
2023/05/29 09:22:10;;;;;;;7.38;2.92;;;23.30;46.20;;;;;;4863343;28;93498;-87
2023/05/29 09:24:38;;;;;;;11.15;3.25;;;23.40;46.30;;;;;;4863158;28;92708;-86
2023/05/29 09:27:04;;;;;;;9.95;2.97;;;23.40;46.10;;;;;;4862935;28;92354;-86
2023/05/29 09:29:33;;;;;;;7.55;2.85;;;23.30;46.30;;;;;;4863901;28;92888;-87
2023/05/29 09:32:00;;;;;;;9.95;3.38;;;23.20;46.70;;;;;;4862978;28;93675;-89
2023/05/29 09:34:27;;;;;;;9.65;3.42;;;23.20;46.70;;;;;;4853988;28;94099;-87
2023/05/29 09:36:53;;;;;;;12.20;3.50;;;23.20;46.40;;;;;;4862434;28;92573;-86
2023/05/29 09:39:19;;;;;;;15.55;3.60;;;23.10;46.40;;;;;;4863993;28;92638;-85
2023/05/29 09:41:45;;;;;;;8.55;2.92;;;23.20;46.10;;;;;;4862358;28;92991;-87
2023/05/29 09:44:17;;;;;;;10.10;3.38;;;23.20;46.20;;;;;;4863467;28;92762;-87
2023/05/29 09:46:42;;;;;;;8.77;3.33;;;23.20;45.70;;;;;;4861746;28;92804;-86
2023/05/29 09:49:11;;;;;;;9.98;3.10;;;23.20;45.80;;;;;;4862458;28;91960;-85
2023/05/29 09:51:37;;;;;;;9.18;3.10;;;23.20;45.90;;;;;;4864416;28;94238;-87
2023/05/29 09:54:18;;;;;;;10.82;3.22;;;23.20;46.00;;;;;;4864385;28;92637;-86
2023/05/29 09:56:45;;;;;;;8.55;2.88;;;23.30;45.40;;;;;;4864466;28;93427;-88
2023/05/29 09:59:12;;;;;;;8.25;3.15;;;23.30;45.70;;;;;;4878959;28;92856;-85
2023/05/29 10:01:43;;;;;;;10.45;3.42;;;23.30;45.60;;;;;;4878508;28;94368;-89
2023/05/29 10:04:13;;;;;;;10.85;3.17;;;23.30;45.80;;;;;;4864007;28;93310;-86
2023/05/29 10:06:46;;;;;;;10.57;2.95;;;23.30;45.20;;;;;;4866434;28;92956;-87
2023/05/29 10:09:15;;;;;;;8.43;3.22;;;23.30;45.60;;;;;;4865242;28;92826;-87
2023/05/29 10:11:47;;;;;;;12.05;3.28;;;23.30;45.60;;;;;;4862844;28;95316;-87
2023/05/29 10:14:19;;;;;;;11.52;3.40;;;23.20;45.80;;;;;;4864976;28;92290;-86
2023/05/29 10:16:47;;;;;;;8.20;2.78;;;23.20;45.60;;;;;;4862624;28;92720;-87
2023/05/29 10:19:17;;;;;;;11.10;2.90;;;23.20;46.00;;;;;;4863358;28;93010;-87
2023/05/29 10:21:44;;;;;;;10.48;3.78;;;23.30;45.40;;;;;;4858463;28;94557;-87
2023/05/29 10:24:11;;;;;;;10.02;3.38;;;23.40;45.20;;;;;;4861671;28;93400;-86
2023/05/29 10:26:40;;;;;;;12.45;3.40;;;23.40;45.50;;;;;;4864016;28;92909;-88
2023/05/29 10:29:34;;;;;;;6.75;2.67;;;23.30;45.60;;;;;;4862560;28;92334;-84
2023/05/29 10:32:23;;;;;;;10.10;3.22;;;23.20;45.30;;;;;;4863440;28;93474;-85
2023/05/29 10:35:00;;;;;;;9.38;3.13;;;23.20;45.90;;;;;;4864047;28;92780;-85
2023/05/29 10:37:47;;;;;;;11.05;3.05;;;23.20;46.00;;;;;;4863727;28;92568;-88
2023/05/29 10:40:13;;;;;;;9.38;3.47;;;23.30;45.20;;;;;;4863095;28;91731;-87
2023/05/29 10:42:38;;;;;;;8.07;2.53;;;23.30;45.70;;;;;;4864384;28;93157;-87
2023/05/29 10:45:05;;;;;;;10.65;2.88;;;23.30;45.20;;;;;;4862950;28;93410;-87
2023/05/29 10:47:30;;;;;;;15.45;3.47;;;23.20;44.90;;;;;;4862058;28;94079;-88
2023/05/29 10:50:00;;;;;;;8.10;3.10;;;23.20;45.30;;;;;;4863071;28;92018;-88
2023/05/29 10:52:26;;;;;;;10.90;2.88;;;23.20;45.90;;;;;;4860320;28;93007;-87
2023/05/29 10:54:54;;;;;;;11.18;3.00;;;23.20;45.40;;;;;;4862019;28;94009;-87
2023/05/29 10:57:24;;;;;;;11.40;3.25;;;23.20;45.70;;;;;;4861648;28;92903;-87
2023/05/29 11:00:06;;;;;;;9.00;3.60;;;23.30;45.30;;;;;;4874419;28;92731;-86
2023/05/29 11:02:32;;;;;;;10.55;2.85;;;23.20;45.20;;;;;;4862577;28;93309;-87
2023/05/29 11:05:20;;;;;;;9.75;3.25;;;23.30;45.40;;;;;;4863091;28;92534;-87
2023/05/29 11:08:02;;;;;;;9.73;3.20;;;23.30;45.50;;;;;;4863244;28;92987;-89
2023/05/29 11:10:46;;;;;;;15.20;4.05;;;23.20;45.60;;;;;;4863883;28;93190;-87
2023/05/29 11:13:35;;;;;;;12.10;2.75;;;23.20;45.50;;;;;;4861730;28;94349;-87
2023/05/29 11:16:10;;;;;;;9.48;3.42;;;23.30;45.50;;;;;;4862626;28;94228;-89
2023/05/29 11:18:46;;;;;;;13.27;3.28;;;23.30;45.50;;;;;;4863136;28;92393;-87
2023/05/29 11:21:27;;;;;;;13.15;3.60;;;23.20;45.10;;;;;;4861902;28;93189;-88
2023/05/29 11:23:54;;;;;;;11.02;3.38;;;23.20;44.60;;;;;;4861506;28;93207;-88
2023/05/29 11:26:22;;;;;;;7.82;3.22;;;23.20;45.40;;;;;;4860419;28;92921;-88
2023/05/29 11:28:48;;;;;;;13.90;3.33;;;23.20;45.20;;;;;;4861141;28;92995;-88
2023/05/29 11:31:16;;;;;;;7.05;3.17;;;23.20;45.50;;;;;;4862001;28;92390;-87
2023/05/29 11:33:50;;;;;;;8.55;2.50;;;23.20;45.40;;;;;;4860800;28;93261;-88
2023/05/29 11:36:19;;;;;;;10.15;3.13;;;23.20;45.40;;;;;;4861206;28;92800;-87
2023/05/29 11:38:45;;;;;;;7.63;2.70;;;23.20;45.00;;;;;;4861211;28;93523;-85
2023/05/29 11:41:11;;;;;;;8.27;2.50;;;23.20;45.70;;;;;;4860150;28;94396;-87
2023/05/29 11:43:36;;;;;;;7.82;2.63;;;23.20;45.90;;;;;;4859891;28;94080;-85
2023/05/29 11:46:02;;;;;;;9.32;2.90;;;23.10;46.00;;;;;;4862251;28;93316;-85
2023/05/29 11:48:28;;;;;;;7.32;2.60;;;23.10;46.00;;;;;;4863171;28;93070;-86
2023/05/29 11:50:54;;;;;;;8.82;2.85;;;23.10;45.90;;;;;;4861337;28;93096;-88
2023/05/29 11:53:19;;;;;;;7.18;2.45;;;23.10;45.80;;;;;;4858255;28;95706;-87
2023/05/29 11:55:45;;;;;;;8.13;2.60;;;23.10;45.80;;;;;;4860532;28;92537;-88
2023/05/29 11:58:11;;;;;;;8.35;2.85;;;23.10;45.90;;;;;;4863305;28;95094;-87
2023/05/29 12:00:38;;;;;;;8.48;2.60;;;23.20;45.30;;;;;;4859335;28;93106;-87
2023/05/29 12:03:06;;;;;;;6.72;2.50;;;23.20;45.00;;;;;;4874646;28;97089;-87
2023/05/29 12:05:43;;;;;;;11.38;3.20;;;23.20;45.00;;;;;;4857632;28;95900;-85
2023/05/29 12:08:09;;;;;;;10.13;3.03;;;23.20;45.40;;;;;;4878649;28;92549;-90
2023/05/29 12:10:35;;;;;;;6.35;2.58;;;23.20;45.70;;;;;;4865660;28;92243;-85
2023/05/29 12:13:01;;;;;;;8.07;2.92;;;23.30;45.30;;;;;;4863303;28;93598;-88
2023/05/29 12:15:27;;;;;;;7.00;2.80;;;23.30;45.30;;;;;;4863817;28;94686;-90
2023/05/29 12:17:53;;;;;;;12.80;2.80;;;23.30;45.20;;;;;;4866198;28;92737;-88
2023/05/29 12:20:22;;;;;;;8.32;2.58;;;23.40;45.70;;;;;;4866885;28;92119;-88
2023/05/29 12:22:48;;;;;;;5.97;2.50;;;23.40;45.10;;;;;;4866262;28;94430;-86
2023/05/29 12:25:16;;;;;;;7.93;2.95;;;23.30;45.30;;;;;;4865691;28;92725;-87
2023/05/29 12:27:46;;;;;;;7.38;2.85;;;23.30;46.00;;;;;;4864562;28;93356;-90
2023/05/29 12:30:16;;;;;;;9.90;3.30;;;23.30;45.40;;;;;;4870241;28;92352;-90
2023/05/29 12:32:44;;;;;;;12.82;3.00;;;23.30;45.40;;;;;;4865968;28;95978;-89
2023/05/29 12:35:16;;;;;;;8.10;2.40;;;23.30;45.50;;;;;;4863242;28;95051;-87
2023/05/29 12:37:53;;;;;;;7.95;2.88;;;23.30;45.60;;;;;;4863710;28;92396;-88
2023/05/29 12:40:23;;;;;;;9.00;3.33;;;23.30;46.00;;;;;;4866648;28;92840;-89
2023/05/29 12:42:54;;;;;;;12.48;3.50;;;23.40;45.80;;;;;;4865671;28;92805;-89
2023/05/29 12:45:21;;;;;;;8.23;3.22;;;23.40;45.60;;;;;;4866591;28;93158;-88